createdAt,value
2018-01-30T00:01:24.599Z,86.70
2018-01-30T00:03:52.937Z,86.70
2018-01-30T00:06:20.514Z,86.80
2018-01-30T00:08:48.100Z,86.80
2018-01-30T00:11:16.465Z,87.20
2018-01-30T00:13:44.836Z,87.30
2018-01-30T00:16:12.389Z,87.30
2018-01-30T00:18:39.977Z,87.30
2018-01-30T00:21:08.311Z,87.40
2018-01-30T00:23:35.895Z,87.30
2018-01-30T00:26:03.516Z,87.10
2018-01-30T00:28:31.079Z,87.30
2018-01-30T00:30:58.643Z,87.30
2018-01-30T00:33:26.228Z,87.50
2018-01-30T00:35:53.828Z,87.50
2018-01-30T00:38:21.396Z,87.80
2018-01-30T00:40:49.717Z,87.70
2018-01-30T00:43:17.301Z,87.70
2018-01-30T00:45:44.857Z,87.60
2018-01-30T00:48:12.450Z,87.70
2018-01-30T00:50:40.808Z,87.90
2018-01-30T00:53:08.361Z,87.90
2018-01-30T00:55:35.950Z,88.00
2018-01-30T00:58:04.269Z,87.90
2018-01-30T01:00:31.855Z,87.90
2018-01-30T01:02:59.472Z,88.00
2018-01-30T01:05:27.024Z,87.90
2018-01-30T01:07:54.577Z,87.70
2018-01-30T01:10:22.200Z,88.00
2018-01-30T01:12:49.793Z,88.10
2018-01-30T01:15:18.111Z,88.50
2018-01-30T01:17:45.734Z,88.50
2018-01-30T01:20:14.064Z,88.70
2018-01-30T01:22:41.704Z,88.60
2018-01-30T01:25:09.292Z,88.90
2018-01-30T01:27:36.851Z,88.90
2018-01-30T01:30:04.451Z,89.00
2018-01-30T01:32:32.774Z,89.10
2018-01-30T01:35:00.366Z,89.00
2018-01-30T01:37:27.927Z,89.00
2018-01-30T01:39:56.304Z,89.10
2018-01-30T01:42:23.885Z,89.10
2018-01-30T01:44:51.498Z,89.20
2018-01-30T01:47:19.056Z,89.10
2018-01-30T01:49:46.609Z,89.20
2018-01-30T01:52:14.200Z,89.00
2018-01-30T01:54:41.805Z,89.20
2018-01-30T01:57:09.376Z,89.10
2018-01-30T01:59:36.960Z,89.30
2018-01-30T02:02:04.557Z,89.50
2018-01-30T02:04:32.201Z,89.80
2018-01-30T02:06:59.761Z,90.10
2018-01-30T02:09:27.322Z,90.20
2018-01-30T02:11:54.958Z,90.30
2018-01-30T02:14:22.581Z,90.20
2018-01-30T02:16:50.937Z,90.20
2018-01-30T02:19:18.485Z,90.20
2018-01-30T02:21:46.093Z,90.10
2018-01-30T02:24:32.125Z,90.00
2018-01-30T02:26:59.708Z,90.00
2018-01-30T02:29:27.275Z,90.20
2018-01-30T02:31:54.874Z,90.50
2018-01-30T02:34:22.438Z,90.70
2018-01-30T02:36:50.025Z,90.70
2018-01-30T02:39:17.583Z,90.90
2018-01-30T02:41:45.159Z,90.80
2018-01-30T02:44:12.761Z,91.10
2018-01-30T02:46:40.351Z,91.40
2018-01-30T02:49:07.901Z,91.60
2018-01-30T02:51:35.533Z,91.60
2018-01-30T02:54:03.921Z,91.20
2018-01-30T02:56:32.259Z,90.90
2018-01-30T02:58:59.833Z,90.90
2018-01-30T03:01:27.440Z,90.90
2018-01-30T03:03:55.013Z,91.10
2018-01-30T03:06:22.598Z,91.50
2018-01-30T03:08:50.216Z,91.60
2018-01-30T03:11:18.579Z,91.90
2018-01-30T03:13:46.920Z,92.10
2018-01-30T03:16:14.510Z,92.10
2018-01-30T03:18:42.873Z,92.30
2018-01-30T03:21:10.425Z,92.30
2018-01-30T03:23:38.082Z,92.50
2018-01-30T03:26:05.673Z,92.40
2018-01-30T03:28:33.231Z,92.30
2018-01-30T03:31:00.832Z,92.60
2018-01-30T03:33:28.417Z,92.60
2018-01-30T03:35:55.968Z,92.30
2018-01-30T03:38:23.566Z,92.50
2018-01-30T03:40:51.136Z,92.60
2018-01-30T03:43:18.751Z,92.30
2018-01-30T03:45:46.317Z,92.50
2018-01-30T03:48:13.921Z,92.40
2018-01-30T03:50:41.537Z,92.50
2018-01-30T03:53:09.097Z,92.60
2018-01-30T03:55:36.688Z,92.60
2018-01-30T03:58:04.240Z,92.70
2018-01-30T04:00:31.848Z,92.70
2018-01-30T04:02:59.416Z,92.40
2018-01-30T04:05:26.978Z,92.60
2018-01-30T04:07:54.694Z,92.90
2018-01-30T04:10:22.253Z,92.60
2018-01-30T04:12:49.817Z,92.60
2018-01-30T04:15:17.433Z,92.80
2018-01-30T04:17:45.009Z,93.00
2018-01-30T04:20:12.796Z,92.90
2018-01-30T04:22:40.398Z,92.80
2018-01-30T04:25:08.013Z,92.30
2018-01-30T04:27:35.574Z,91.60
2018-01-30T04:30:03.185Z,91.70
2018-01-30T04:32:30.766Z,91.30
2018-01-30T04:34:58.366Z,91.20
2018-01-30T04:37:25.928Z,90.50
2018-01-30T04:39:53.518Z,90.80
2018-01-30T04:42:21.860Z,91.60
2018-01-30T04:44:49.465Z,91.60
2018-01-30T04:47:17.837Z,90.60
2018-01-30T04:49:46.181Z,90.70
2018-01-30T04:52:13.801Z,90.70
2018-01-30T04:54:41.350Z,91.20
2018-01-30T04:57:09.682Z,91.10
2018-01-30T04:59:37.286Z,91.10
2018-01-30T05:02:05.627Z,91.20
2018-01-30T05:04:33.179Z,91.20
2018-01-30T05:07:00.798Z,90.90
2018-01-30T05:09:28.402Z,90.70
2018-01-30T05:11:55.957Z,91.00
2018-01-30T05:14:23.564Z,90.60
2018-01-30T05:16:51.132Z,90.10
2018-01-30T05:19:18.723Z,90.40
2018-01-30T05:21:46.353Z,89.50
2018-01-30T05:24:13.915Z,89.60
2018-01-30T05:26:41.547Z,90.00
2018-01-30T05:29:09.162Z,89.10
2018-01-30T05:31:36.723Z,89.50
2018-01-30T05:34:04.273Z,88.70
2018-01-30T05:36:31.885Z,88.80
2018-01-30T05:38:59.754Z,88.90
2018-01-30T05:41:27.361Z,89.40
2018-01-30T05:43:54.960Z,88.80
2018-01-30T05:46:22.587Z,89.30
2018-01-30T05:48:50.195Z,88.80
2018-01-30T05:51:17.761Z,88.50
2018-01-30T05:53:45.393Z,88.50
2018-01-30T05:56:12.949Z,88.50
2018-01-30T05:58:40.578Z,89.10
2018-01-30T06:01:08.168Z,88.10
2018-01-30T06:03:35.865Z,87.70
2018-01-30T06:06:03.454Z,88.20
2018-01-30T06:08:31.047Z,87.80
2018-01-30T06:10:58.645Z,87.80
2018-01-30T06:13:26.250Z,88.30
2018-01-30T06:15:53.856Z,88.70
2018-01-30T06:18:21.513Z,88.70
2018-01-30T06:20:49.076Z,87.50
2018-01-30T06:23:16.689Z,88.40
2018-01-30T06:25:47.025Z,88.20
2018-01-30T06:28:14.649Z,88.10
2018-01-30T06:30:42.217Z,88.40
2018-01-30T06:33:09.782Z,88.00
2018-01-30T06:35:37.382Z,87.60
2018-01-30T06:38:04.964Z,86.90
2018-01-30T06:40:32.553Z,86.50
2018-01-30T06:43:00.112Z,86.40
2018-01-30T06:45:27.722Z,86.70
2018-01-30T06:47:55.311Z,87.10
2018-01-30T06:50:22.939Z,86.80
2018-01-30T06:52:50.555Z,87.00
2018-01-30T06:55:18.117Z,86.00
2018-01-30T06:57:45.718Z,87.00
2018-01-30T07:00:13.322Z,86.80
2018-01-30T07:02:40.890Z,87.60
2018-01-30T07:05:08.560Z,85.50
2018-01-30T07:07:36.177Z,84.60
2018-01-30T07:10:03.740Z,84.10
2018-01-30T07:12:31.341Z,83.30
2018-01-30T07:14:58.939Z,83.50
2018-01-30T07:17:26.535Z,82.80
2018-01-30T07:19:54.259Z,81.00
2018-01-30T07:22:21.886Z,81.50
2018-01-30T07:24:49.520Z,82.70
2018-01-30T07:27:17.154Z,83.40
2018-01-30T07:29:44.770Z,82.20
2018-01-30T07:32:12.395Z,80.70
2018-01-30T07:34:40.011Z,82.80
2018-01-30T07:37:08.362Z,81.50
2018-01-30T07:39:35.936Z,81.20
2018-01-30T07:42:03.546Z,80.70
2018-01-30T07:44:31.163Z,80.40
2018-01-30T07:46:58.824Z,83.30
2018-01-30T07:49:27.263Z,87.50
2018-01-30T07:51:54.855Z,87.40
2018-01-30T07:54:22.437Z,88.20
2018-01-30T07:56:50.029Z,89.10
2018-01-30T07:59:17.642Z,90.00
2018-01-30T08:01:45.257Z,90.10
2018-01-30T08:04:12.977Z,90.30
2018-01-30T08:06:40.602Z,90.40
2018-01-30T08:09:08.945Z,90.60
2018-01-30T08:11:37.486Z,90.60
2018-01-30T08:14:05.173Z,90.70
2018-01-30T08:16:35.582Z,90.60
2018-01-30T08:19:03.186Z,90.60
2018-01-30T08:21:31.083Z,90.40
2018-01-30T08:24:00.037Z,90.70
2018-01-30T08:26:27.776Z,91.00
2018-01-30T08:28:56.402Z,90.60
2018-01-30T08:31:24.313Z,90.90
2018-01-30T08:33:52.048Z,90.90
2018-01-30T08:36:20.362Z,90.30
2018-01-30T08:38:48.178Z,89.00
2018-01-30T08:41:15.797Z,85.20
2018-01-30T08:43:43.403Z,86.30
2018-01-30T08:46:10.972Z,87.10
2018-01-30T08:48:38.646Z,86.50
2018-01-30T08:51:06.293Z,85.60
2018-01-30T08:53:33.955Z,84.60
2018-01-30T08:56:01.587Z,84.40
2018-01-30T08:58:30.139Z,85.40
2018-01-30T09:00:58.356Z,81.90
2018-01-30T09:03:27.599Z,80.80
2018-01-30T09:05:55.790Z,80.70
2018-01-30T09:08:23.528Z,81.40
2018-01-30T09:10:51.423Z,82.50
2018-01-30T09:13:21.598Z,83.50
2018-01-30T09:15:50.114Z,81.80
2018-01-30T09:18:18.270Z,81.00
2018-01-30T09:20:45.990Z,80.40
2018-01-30T09:23:14.381Z,76.80
2018-01-30T09:25:42.777Z,76.60
2018-01-30T09:28:10.457Z,76.60
2018-01-30T09:30:38.527Z,77.50
2018-01-30T09:33:06.263Z,71.00
2018-01-30T09:35:33.973Z,71.90
2018-01-30T09:38:02.718Z,72.60
2018-01-30T09:40:32.393Z,70.30
2018-01-30T09:43:00.908Z,68.10
2018-01-30T09:45:30.542Z,68.10
2018-01-30T09:47:59.059Z,70.80
2018-01-30T09:50:26.799Z,70.20
2018-01-30T09:52:54.609Z,71.70
2018-01-30T09:55:23.291Z,73.20
2018-01-30T09:57:50.944Z,73.20
2018-01-30T10:00:23.070Z,74.00
2018-01-30T10:02:52.041Z,72.00
2018-01-30T10:05:20.669Z,72.10
2018-01-30T10:07:48.623Z,72.00
2018-01-30T10:12:51.107Z,69.40
2018-01-30T10:15:18.720Z,69.20
2018-01-30T10:17:46.480Z,67.30
2018-01-30T10:20:16.503Z,68.00
2018-01-30T10:22:45.332Z,67.60
2018-01-30T10:25:13.024Z,67.60
2018-01-30T10:27:41.012Z,67.30
2018-01-30T10:30:08.725Z,69.70
2018-01-30T10:32:37.618Z,69.10
2018-01-30T10:35:05.358Z,68.50
2018-01-30T10:37:33.850Z,66.60
2018-01-30T10:40:02.446Z,66.60
2018-01-30T10:42:31.251Z,66.00
2018-01-30T10:44:59.789Z,66.80
2018-01-30T10:47:28.260Z,66.70
2018-01-30T10:49:55.994Z,66.50
2018-01-30T10:52:23.626Z,68.80
2018-01-30T10:54:51.239Z,67.50
2018-01-30T10:57:18.862Z,66.10
2018-01-30T10:59:46.553Z,67.30
2018-01-30T11:02:15.170Z,65.80
2018-01-30T11:04:42.750Z,65.80
2018-01-30T11:07:11.210Z,63.90
2018-01-30T11:09:38.859Z,63.80
2018-01-30T11:12:06.479Z,64.60
2018-01-30T11:14:34.104Z,66.50
2018-01-30T11:17:01.935Z,65.90
2018-01-30T11:19:29.547Z,63.80
2018-01-30T11:21:57.908Z,65.80
2018-01-30T11:24:25.550Z,65.80
2018-01-30T11:26:53.220Z,66.40
2018-01-30T11:29:20.809Z,66.40
2018-01-30T11:31:48.472Z,66.20
2018-01-30T11:34:17.319Z,67.40
2018-01-30T11:36:44.916Z,67.30
2018-01-30T11:39:12.586Z,64.80
2018-01-30T11:41:40.202Z,63.30
2018-01-30T11:44:07.822Z,61.80
2018-01-30T11:46:35.469Z,62.70
2018-01-30T11:49:03.900Z,59.10
2018-01-30T11:51:31.491Z,59.10
2018-01-30T11:53:59.177Z,60.60
2018-01-30T11:56:26.832Z,59.90
2018-01-30T11:58:54.609Z,62.80
2018-01-30T12:01:23.633Z,59.40
2018-01-30T12:03:52.993Z,59.50
2018-01-30T12:06:22.415Z,61.20
2018-01-30T12:08:51.263Z,59.40
2018-01-30T12:11:22.445Z,59.50
2018-01-30T12:13:53.195Z,59.10
2018-01-30T12:16:23.638Z,54.30
2018-01-30T12:18:54.531Z,51.80
2018-01-30T12:21:24.560Z,50.20
2018-01-30T12:23:53.776Z,48.40
2018-01-30T12:26:21.538Z,48.80
2018-01-30T12:28:49.110Z,48.80
2018-01-30T12:31:16.718Z,50.40
2018-01-30T12:33:44.304Z,51.40
2018-01-30T12:36:23.811Z,46.40
2018-01-30T12:38:51.908Z,46.30
2018-01-30T12:41:19.485Z,47.60
2018-01-30T12:43:47.881Z,41.10
2018-01-30T12:46:15.910Z,41.10
2018-01-30T12:48:43.603Z,40.00
2018-01-30T12:51:11.945Z,39.40
2018-01-30T12:53:39.555Z,39.40
2018-01-30T12:56:07.135Z,38.70
2018-01-30T12:58:34.766Z,37.80
2018-01-30T13:01:03.159Z,39.40
2018-01-30T13:03:30.766Z,39.40
2018-01-30T13:06:00.386Z,39.20
2018-01-30T13:08:27.965Z,41.60
2018-01-30T13:11:01.671Z,47.50
2018-01-30T13:13:34.522Z,47.40
2018-01-30T13:16:04.560Z,50.70
2018-01-30T13:18:33.868Z,51.80
2018-01-30T13:21:04.089Z,52.70
2018-01-30T13:23:33.037Z,53.50
2018-01-30T13:26:11.507Z,53.90
2018-01-30T13:28:40.106Z,53.90
2018-01-30T13:31:09.673Z,53.50
2018-01-30T13:33:38.110Z,53.50
2018-01-30T13:36:07.107Z,50.90
2018-01-30T13:38:36.087Z,48.20
2018-01-30T13:41:04.354Z,49.60
2018-01-30T13:43:33.414Z,48.50
2018-01-30T13:46:02.579Z,45.60
2018-01-30T13:48:30.201Z,44.00
2018-01-30T13:50:58.542Z,46.20
2018-01-30T13:53:26.156Z,46.20
2018-01-30T13:55:53.773Z,49.60
2018-01-30T13:58:21.382Z,52.50
2018-01-30T14:00:49.033Z,52.60
2018-01-30T14:03:16.583Z,53.30
2018-01-30T14:05:44.351Z,53.90
2018-01-30T14:08:11.952Z,56.40
2018-01-30T14:10:39.558Z,56.90
2018-01-30T14:13:07.180Z,58.00
2018-01-30T14:15:36.594Z,60.10
2018-01-30T14:18:05.257Z,60.10
2018-01-30T14:20:32.865Z,60.70
2018-01-30T14:23:00.449Z,61.30
2018-01-30T14:25:28.838Z,60.30
2018-01-30T14:27:57.183Z,61.10
2018-01-30T14:30:24.768Z,61.10
2018-01-30T14:32:53.169Z,63.30
2018-01-30T14:35:20.780Z,63.20
2018-01-30T14:37:48.413Z,64.40
2018-01-30T14:40:16.009Z,64.20
2018-01-30T14:42:43.565Z,63.10
2018-01-30T14:45:11.201Z,62.60
2018-01-30T14:47:38.802Z,63.00
2018-01-30T14:50:06.416Z,63.50
2018-01-30T14:52:34.088Z,63.80
2018-01-30T14:55:01.681Z,65.10
2018-01-30T14:57:29.274Z,64.60
2018-01-30T14:59:57.633Z,65.40
2018-01-30T15:02:26.083Z,66.40
2018-01-30T15:04:53.689Z,66.50
2018-01-30T15:07:22.050Z,65.80
2018-01-30T15:09:50.434Z,64.70
2018-01-30T15:12:18.009Z,64.70
2018-01-30T15:14:45.728Z,65.50
2018-01-30T15:17:13.368Z,65.30
2018-01-30T15:19:40.937Z,66.40
2018-01-30T15:22:09.455Z,67.00
2018-01-30T15:24:37.023Z,68.20
2018-01-30T15:27:05.429Z,68.90
2018-01-30T15:29:33.103Z,68.90
2018-01-30T15:32:00.738Z,69.60
2018-01-30T15:34:28.401Z,70.40
2018-01-30T15:36:56.765Z,69.90
2018-01-30T15:39:24.393Z,69.80
2018-01-30T15:41:52.037Z,71.00
2018-01-30T15:44:20.404Z,70.20
2018-01-30T15:46:48.976Z,70.20
2018-01-30T15:49:16.647Z,70.70
2018-01-30T15:51:44.249Z,70.60
2018-01-30T15:54:11.862Z,70.30
2018-01-30T15:56:39.465Z,70.70
2018-01-30T15:59:07.033Z,72.60
2018-01-30T16:01:34.649Z,73.00
2018-01-30T16:04:03.046Z,73.20
2018-01-30T16:06:30.642Z,73.20
2018-01-30T16:08:58.247Z,74.70
2018-01-30T16:11:25.862Z,74.10
2018-01-30T16:13:53.511Z,74.50
2018-01-30T16:16:21.109Z,74.60
2018-01-30T16:18:49.445Z,76.00
2018-01-30T16:21:17.037Z,75.30
2018-01-30T16:23:44.596Z,75.90
2018-01-30T16:26:12.248Z,75.90
2018-01-30T16:28:40.654Z,76.10
2018-01-30T16:31:13.653Z,76.60
2018-01-30T16:33:41.253Z,76.60
2018-01-30T16:36:08.865Z,76.80
2018-01-30T16:38:36.638Z,76.90
2018-01-30T16:41:04.247Z,77.30
2018-01-30T16:43:31.862Z,77.50
2018-01-30T16:46:00.206Z,77.80
2018-01-30T16:48:27.982Z,77.80
2018-01-30T16:50:55.585Z,77.80
2018-01-30T16:53:23.942Z,78.10
2018-01-30T16:55:52.333Z,78.40
2018-01-30T16:58:19.882Z,78.40
2018-01-30T17:00:47.477Z,78.70
2018-01-30T17:03:15.108Z,79.10
2018-01-30T17:05:42.698Z,79.60
2018-01-30T17:08:10.649Z,79.90
2018-01-30T17:10:38.995Z,80.70
2018-01-30T17:13:06.608Z,80.70
2018-01-30T17:15:34.195Z,81.10
2018-01-30T17:18:01.804Z,81.20
2018-01-30T17:20:29.460Z,81.50
2018-01-30T17:22:57.792Z,81.90
2018-01-30T17:25:25.386Z,81.70
2018-01-30T17:27:52.939Z,81.70
2018-01-30T17:30:20.549Z,81.90
2018-01-30T17:32:49.609Z,82.00
2018-01-30T17:35:17.209Z,81.80
2018-01-30T17:37:44.766Z,82.50
2018-01-30T17:40:12.360Z,81.50
2018-01-30T17:42:41.146Z,81.50
2018-01-30T17:45:08.756Z,81.50
2018-01-30T17:47:37.092Z,81.70
2018-01-30T17:50:04.741Z,81.60
2018-01-30T17:52:32.301Z,81.70
2018-01-30T17:54:59.853Z,81.70
2018-01-30T17:57:27.449Z,81.70
2018-01-30T17:59:55.001Z,82.10
2018-01-30T18:02:22.596Z,82.10
2018-01-30T18:04:50.927Z,83.20
2018-01-30T18:07:18.514Z,83.10
2018-01-30T18:09:46.117Z,83.70
2018-01-30T18:12:13.708Z,83.90
2018-01-30T18:14:41.300Z,83.30
2018-01-30T18:17:08.921Z,83.40
2018-01-30T18:19:36.550Z,83.20
2018-01-30T18:22:04.181Z,82.90
2018-01-30T18:24:31.763Z,82.80
2018-01-30T18:26:59.365Z,83.20
2018-01-30T18:29:26.956Z,83.20
2018-01-30T18:31:54.585Z,83.20
2018-01-30T18:34:22.133Z,83.30
2018-01-30T18:36:49.705Z,83.60
2018-01-30T18:39:17.345Z,83.50
2018-01-30T18:41:44.961Z,83.10
2018-01-30T18:44:13.341Z,83.60
2018-01-30T18:46:40.896Z,83.50
2018-01-30T18:49:08.508Z,83.10
2018-01-30T18:51:36.073Z,82.80
2018-01-30T18:54:03.680Z,83.10
2018-01-30T18:56:31.274Z,83.30
2018-01-30T18:58:59.596Z,83.10
2018-01-30T19:01:29.532Z,83.00
2018-01-30T19:03:57.100Z,83.30
2018-01-30T19:06:24.713Z,83.50
2018-01-30T19:08:52.277Z,83.60
2018-01-30T19:11:19.863Z,83.70
2018-01-30T19:13:47.442Z,83.40
2018-01-30T19:16:22.075Z,83.30
2018-01-30T19:18:49.583Z,83.10
2018-01-30T19:21:17.170Z,83.40
2018-01-30T19:23:44.763Z,83.90
2018-01-30T19:26:12.355Z,83.90
2018-01-30T19:28:40.724Z,83.80
2018-01-30T19:31:08.356Z,83.90
2018-01-30T19:33:35.932Z,84.00
2018-01-30T19:36:04.321Z,84.20
2018-01-30T19:38:32.692Z,84.30
2018-01-30T19:41:00.250Z,84.30
2018-01-30T19:43:28.633Z,84.60
2018-01-30T19:45:56.255Z,84.60
2018-01-30T19:48:23.856Z,84.90
2018-01-30T19:50:51.467Z,84.90
2018-01-30T19:53:19.041Z,85.20
2018-01-30T19:55:46.636Z,85.70
2018-01-30T19:58:14.188Z,85.30
2018-01-30T20:00:41.754Z,85.30
2018-01-30T20:03:09.354Z,85.20
2018-01-30T20:05:36.925Z,85.40
2018-01-30T20:08:04.521Z,86.00
2018-01-30T20:10:32.098Z,85.30
2018-01-30T20:12:59.702Z,85.50
2018-01-30T20:15:27.268Z,85.30
2018-01-30T20:17:54.844Z,85.30
2018-01-30T20:20:22.431Z,85.00
2018-01-30T20:22:49.999Z,85.30
2018-01-30T20:25:17.598Z,86.20
2018-01-30T20:27:45.168Z,85.60
2018-01-30T20:30:12.738Z,85.50
2018-01-30T20:32:40.393Z,85.90
2018-01-30T20:35:07.942Z,85.70
2018-01-30T20:37:35.548Z,86.10
2018-01-30T20:40:03.147Z,86.80
2018-01-30T20:42:31.524Z,87.10
2018-01-30T20:44:59.882Z,87.30
2018-01-30T20:47:27.500Z,87.30
2018-01-30T20:49:55.098Z,87.20
2018-01-30T20:52:22.678Z,87.30
2018-01-30T20:54:50.256Z,87.10
2018-01-30T20:57:18.586Z,87.20
2018-01-30T20:59:46.212Z,87.20
2018-01-30T21:02:16.795Z,87.30
2018-01-30T21:04:44.444Z,86.90
2018-01-30T21:07:12.061Z,86.50
2018-01-30T21:09:39.628Z,86.10
2018-01-30T21:12:07.257Z,86.40
2018-01-30T21:14:35.608Z,86.70
2018-01-30T21:17:03.225Z,86.70
2018-01-30T21:19:30.784Z,86.60
2018-01-30T21:21:58.351Z,86.50
2018-01-30T21:24:25.973Z,86.00
2018-01-30T21:26:53.562Z,84.70
2018-01-30T21:29:21.168Z,84.40
2018-01-30T21:31:48.732Z,83.50
2018-01-30T21:34:16.296Z,82.50
2018-01-30T21:36:43.919Z,82.00
2018-01-30T21:39:11.513Z,82.00
2018-01-30T21:41:39.120Z,82.10
2018-01-30T21:44:07.439Z,81.70
2018-01-30T21:46:35.039Z,81.70
2018-01-30T21:49:02.608Z,82.10
2018-01-30T21:51:30.168Z,82.40
2018-01-30T21:53:57.760Z,83.30
2018-01-30T21:56:25.368Z,83.20
2018-01-30T21:58:52.948Z,83.50
2018-01-30T22:01:20.505Z,84.00
2018-01-30T22:03:48.877Z,85.10
2018-01-30T22:06:23.228Z,84.60
2018-01-30T22:08:50.841Z,84.40
2018-01-30T22:11:18.411Z,84.00
2018-01-30T22:13:46.015Z,83.60
2018-01-30T22:16:14.330Z,82.60
2018-01-30T22:18:41.948Z,82.60
2018-01-30T22:21:10.261Z,81.50
2018-01-30T22:23:37.871Z,81.50
2018-01-30T22:26:05.432Z,81.40
2018-01-30T22:28:33.799Z,81.00
2018-01-30T22:31:01.353Z,80.90
2018-01-30T22:33:28.921Z,81.20
2018-01-30T22:35:56.531Z,80.80
2018-01-30T22:38:24.090Z,80.50
2018-01-30T22:40:51.713Z,80.60
2018-01-30T22:43:19.300Z,80.70
2018-01-30T22:45:46.908Z,80.40
